Météo Nord-Pas-de-Calais   La météo au plus près de chez vous

Station météorologique

Observations météo à Batz (29082)

29082001 32 m Dernier relevé à 17:12
20.5°C
Vent 16.6 km/h

Journée consultée

Mardi 1 Septembre 2026

Synthèse de la journée

Périodes de référence en UTC

Température maximale

21.3°C

à 16:00

06h 06h

Température minimale

14.2°C

à 02:42

18h 18h

Rafale maximale

26 km/h

à 15:18

00h 00h

Précipitations

0 mm

Cumul quotidien

06h 06h

Graphiques de la journée

Heure locale Réduire

Données détaillées

Relevés météo

Pas de 6 minutes Afficher les relevés infra-horaires
Relevés météo détaillés à Batz pour le Mardi 1 Septembre 2026
Heure Température °C Vent moyen (raf.), km/h Précipitations mm
17:12 20.5 °C 17 km/h (23 km/h) 0 mm0 mm
17:06 19.9 °C 16 km/h (21 km/h) 0 mm0 mm
17:00 19.2 °C 16 km/h (23 km/h) 0 mm0 mm
16:54 19.6 °C 15 km/h (23 km/h) 0 mm0 mm
16:48 20.1 °C 16 km/h (22 km/h) 0 mm0 mm
16:42 20.5 °C 17 km/h (22 km/h) 0 mm0 mm
16:36 20.6 °C 15 km/h (21 km/h) 0 mm0 mm
16:30 20.5 °C 14 km/h (21 km/h) 0 mm0 mm
16:24 20.8 °C 15 km/h (22 km/h) 0 mm0 mm
16:18 20.3 °C 17 km/h (22 km/h) 0 mm0 mm
16:12 19.9 °C 17 km/h (23 km/h) 0 mm0 mm
16:06 19.4 °C 16 km/h (22 km/h) 0 mm0 mm
16:00 18.9 °C 18 km/h (24 km/h) 0 mm0 mm
15:54 19.1 °C 18 km/h (24 km/h) 0 mm0 mm
15:48 19.4 °C 17 km/h (23 km/h) 0 mm0 mm
15:42 19.4 °C 16 km/h (21 km/h) 0 mm0 mm
15:36 19.6 °C 17 km/h (26 km/h) 0 mm0 mm
15:30 19.6 °C 17 km/h (26 km/h) 0 mm0 mm
15:24 19.9 °C 19 km/h (26 km/h) 0 mm0 mm
15:18 20.5 °C 18 km/h (26 km/h) 0 mm0 mm
15:12 21 °C 17 km/h (24 km/h) 0 mm0 mm
15:06 21.2 °C 15 km/h (23 km/h) 0 mm0 mm
15:00 21 °C 15 km/h (22 km/h) 0 mm0 mm
14:54 20.9 °C 17 km/h (22 km/h) 0 mm0 mm
14:48 20.6 °C 15 km/h (21 km/h) 0 mm0 mm
14:42 20.8 °C 14 km/h (18 km/h) 0 mm0 mm
14:36 20.9 °C 15 km/h (21 km/h) 0 mm0 mm
14:30 20.9 °C 16 km/h (22 km/h) 0 mm0 mm
14:24 20.6 °C 17 km/h (22 km/h) 0 mm0 mm
14:18 20.7 °C 15 km/h (21 km/h) 0 mm0 mm
14:12 21 °C 15 km/h (21 km/h) 0 mm0 mm
14:06 20.6 °C 17 km/h (23 km/h) 0 mm0 mm
14:00 20.6 °C 18 km/h (23 km/h) 0 mm0 mm
13:54 20.7 °C 17 km/h (23 km/h) 0 mm0 mm
13:48 20.4 °C 14 km/h (19 km/h) 0 mm0 mm
13:42 19.7 °C 14 km/h (18 km/h) 0 mm0 mm
13:36 19.6 °C 14 km/h (18 km/h) 0 mm0 mm
13:30 19.5 °C 14 km/h (18 km/h) 0 mm0 mm
13:24 19.6 °C 13 km/h (17 km/h) 0 mm0 mm
13:18 19.7 °C 12 km/h (17 km/h) 0 mm0 mm
13:12 19.8 °C 12 km/h (17 km/h) 0 mm0 mm
13:06 19.7 °C 13 km/h (17 km/h) 0 mm0 mm
13:00 20 °C 12 km/h (16 km/h) 0 mm0 mm
12:54 20.6 °C 10 km/h (14 km/h) 0 mm0 mm
12:48 20.7 °C 11 km/h (17 km/h) 0 mm0 mm
12:42 20.4 °C 12 km/h (16 km/h) 0 mm0 mm
12:36 20.2 °C 13 km/h (18 km/h) 0 mm0 mm
12:30 20.4 °C 15 km/h (18 km/h) 0 mm0 mm
12:24 20.4 °C 13 km/h (18 km/h) 0 mm0 mm
12:18 20.3 °C 9 km/h (15 km/h) 0 mm0 mm
12:12 20.1 °C 9 km/h (14 km/h) 0 mm0 mm
12:06 19.7 °C 8 km/h (14 km/h) 0 mm0 mm
12:00 19.6 °C 6 km/h (12 km/h) 0 mm0 mm
11:54 19.3 °C 6 km/h (12 km/h) 0 mm0 mm
11:48 19 °C 6 km/h (10 km/h) 0 mm0 mm
11:42 18.7 °C 6 km/h (11 km/h) 0 mm0 mm
11:36 19.1 °C 6 km/h (12 km/h) 0 mm0 mm
11:30 19.1 °C 7 km/h (13 km/h) 0 mm0 mm
11:24 18.8 °C 7 km/h (13 km/h) 0 mm0 mm
11:18 19 °C 5 km/h (10 km/h) 0 mm0 mm
11:12 19.1 °C 6 km/h (10 km/h) 0 mm0 mm
11:06 19 °C 6 km/h (11 km/h) 0 mm0 mm
11:00 19.1 °C 6 km/h (12 km/h) 0 mm0 mm
10:54 18.7 °C 6 km/h (12 km/h) 0 mm0 mm
10:48 18.4 °C 5 km/h (12 km/h) 0 mm0 mm
10:42 18.2 °C 5 km/h (10 km/h) 0 mm0 mm
10:36 18 °C 6 km/h (12 km/h) 0 mm0 mm
10:30 17.8 °C 5 km/h (11 km/h) 0 mm0 mm
10:24 17.4 °C 5 km/h (10 km/h) 0 mm0 mm
10:18 17.1 °C 6 km/h (10 km/h) 0 mm0 mm
10:12 16.7 °C 7 km/h (13 km/h) 0 mm0 mm
10:06 16.3 °C 8 km/h (13 km/h) 0 mm0 mm
10:00 16.1 °C 8 km/h (12 km/h) 0 mm0 mm
09:54 16.1 °C 8 km/h (13 km/h) 0 mm0 mm
09:48 16.1 °C 8 km/h (13 km/h) 0 mm0 mm
09:42 16.1 °C 7 km/h (13 km/h) 0 mm0 mm
09:36 15.8 °C 7 km/h (11 km/h) 0 mm0 mm
09:30 15.5 °C 6 km/h (10 km/h) 0 mm0 mm
09:24 15.3 °C 6 km/h (10 km/h) 0 mm0 mm
09:18 15.2 °C 7 km/h (10 km/h) 0 mm0 mm
09:12 15.1 °C 7 km/h (10 km/h) 0 mm0 mm
09:06 15 °C 8 km/h (11 km/h) 0 mm0 mm
09:00 14.9 °C 9 km/h (11 km/h) 0 mm0 mm
08:54 14.8 °C 9 km/h (11 km/h) 0 mm0 mm
08:48 14.8 °C 9 km/h (10 km/h) 0 mm0 mm
08:42 14.9 °C 8 km/h (9 km/h) 0 mm0 mm
08:36 15 °C 8 km/h (10 km/h) 0 mm0 mm
08:30 15 °C 7 km/h (10 km/h) 0 mm0 mm
08:24 15 °C 7 km/h (10 km/h) 0 mm0 mm
08:18 14.9 °C 7 km/h (10 km/h) 0 mm0 mm
08:12 14.8 °C 6 km/h (8 km/h) 0 mm0 mm
08:06 14.8 °C 6 km/h (8 km/h) 0 mm0 mm
08:00 14.8 °C 6 km/h (8 km/h) 0 mm0 mm
07:54 14.8 °C 6 km/h (8 km/h) 0 mm0 mm
07:48 14.8 °C 7 km/h (9 km/h) 0 mm0 mm
07:42 14.8 °C 9 km/h (11 km/h) 0 mm0 mm
07:36 14.9 °C 8 km/h (10 km/h) 0 mm0 mm
07:30 14.9 °C 7 km/h (10 km/h) 0 mm0 mm
07:24 14.9 °C 7 km/h (10 km/h) 0 mm0 mm
07:18 14.9 °C 8 km/h (10 km/h) 0 mm0 mm
07:12 14.9 °C 9 km/h (11 km/h) 0 mm0 mm
07:06 14.9 °C 8 km/h (11 km/h) 0 mm0 mm
07:00 14.9 °C 6 km/h (10 km/h) 0 mm0 mm
06:54 14.9 °C 8 km/h (12 km/h) 0 mm0 mm
06:48 14.9 °C 9 km/h (12 km/h) 0 mm0 mm
06:42 14.9 °C 9 km/h (12 km/h) 0 mm0 mm
06:36 14.9 °C 8 km/h (11 km/h) 0 mm0 mm
06:30 15 °C 8 km/h (10 km/h) 0 mm0 mm
06:24 15 °C 8 km/h (11 km/h) 0 mm0 mm
06:18 15.1 °C 8 km/h (11 km/h) 0 mm0 mm
06:12 15.2 °C 8 km/h (11 km/h) 0 mm0 mm
06:06 15.1 °C 8 km/h (13 km/h) 0 mm0 mm
06:00 15.1 °C 8 km/h (13 km/h) 0 mm0 mm
05:54 15.1 °C 8 km/h (10 km/h) 0 mm0 mm
05:48 15.1 °C 7 km/h (9 km/h) 0 mm0 mm
05:42 15 °C 7 km/h (9 km/h) 0 mm0 mm
05:36 15 °C 6 km/h (9 km/h) 0 mm0 mm
05:30 15 °C 7 km/h (9 km/h) 0 mm0 mm
05:24 15 °C 8 km/h (9 km/h) 0 mm0 mm
05:18 15 °C 8 km/h (9 km/h) 0 mm0 mm
05:12 15 °C 7 km/h (9 km/h) 0 mm0 mm
05:06 15 °C 8 km/h (10 km/h) 0 mm0 mm
05:00 14.9 °C 8 km/h (12 km/h) 0 mm0 mm
04:54 14.8 °C 8 km/h (12 km/h) 0 mm0 mm
04:48 14.7 °C 8 km/h (12 km/h) 0 mm0 mm
04:42 14.6 °C 7 km/h (9 km/h) 0 mm0 mm
04:36 14.6 °C 7 km/h (9 km/h) 0 mm0 mm
04:30 14.6 °C 8 km/h (9 km/h) 0 mm0 mm
04:24 14.5 °C 7 km/h (9 km/h) 0 mm0 mm
04:18 14.5 °C 8 km/h (9 km/h) 0 mm0 mm
04:12 14.5 °C 8 km/h (11 km/h) 0 mm0 mm
04:06 14.5 °C 8 km/h (12 km/h) 0 mm0 mm
04:00 14.5 °C 8 km/h (10 km/h) 0 mm0 mm
03:54 14.4 °C 8 km/h (10 km/h) 0 mm0 mm
03:48 14.4 °C 8 km/h (10 km/h) 0 mm0 mm
03:42 14.4 °C 8 km/h (10 km/h) 0 mm0 mm
03:36 14.3 °C 7 km/h (11 km/h) 0 mm0 mm
03:30 14.3 °C 8 km/h (11 km/h) 0 mm0 mm
03:24 14.3 °C 8 km/h (11 km/h) 0 mm0 mm
03:18 14.2 °C 8 km/h (10 km/h) 0 mm0 mm
03:12 14.2 °C 8 km/h (11 km/h) 0 mm0 mm
03:06 14.2 °C 8 km/h (11 km/h) 0 mm0 mm
03:00 14.3 °C 8 km/h (10 km/h) 0 mm0 mm
02:54 14.2 °C 8 km/h (10 km/h) 0 mm0 mm
02:48 14.2 °C 8 km/h (10 km/h) 0 mm0 mm
02:42 14.2 °C 8 km/h (10 km/h) 0 mm0 mm
02:36 14.3 °C 8 km/h (10 km/h) 0 mm0 mm
02:30 14.4 °C 8 km/h (11 km/h) 0 mm0 mm
02:24 14.5 °C 8 km/h (11 km/h) 0 mm0 mm
02:18 14.5 °C 8 km/h (9 km/h) 0 mm0 mm
02:12 14.6 °C 7 km/h (9 km/h) 0 mm0 mm
02:06 14.7 °C 6 km/h (9 km/h) 0 mm0 mm
02:00 14.8 °C 7 km/h (10 km/h) 0 mm0 mm
01:54 14.9 °C 8 km/h (11 km/h) 0 mm0 mm
01:48 14.9 °C 7 km/h (10 km/h) 0 mm0 mm
01:42 15.1 °C 7 km/h (9 km/h) 0 mm0 mm
01:36 15.1 °C 7 km/h (9 km/h) 0 mm0 mm
01:30 15.2 °C 7 km/h (9 km/h) 0 mm0 mm
01:24 15.3 °C 8 km/h (11 km/h) 0 mm0 mm
01:18 15.3 °C 9 km/h (12 km/h) 0 mm0 mm
01:12 15.3 °C 10 km/h (13 km/h) 0 mm0 mm
01:06 15.4 °C 8 km/h (13 km/h) 0 mm0 mm
01:00 15.5 °C 8 km/h (11 km/h) 0 mm0 mm
00:54 15.5 °C 8 km/h (11 km/h) 0 mm0 mm
00:48 15.6 °C 8 km/h (10 km/h) 0 mm0 mm
00:42 15.7 °C 8 km/h (10 km/h) 0 mm0 mm
00:36 15.7 °C 8 km/h (12 km/h) 0 mm0 mm
00:30 15.7 °C 9 km/h (12 km/h) 0 mm0 mm
00:24 15.9 °C 9 km/h (13 km/h) 0 mm0 mm
00:18 16 °C 8 km/h (13 km/h) 0 mm0 mm
00:12 16 °C 9 km/h (13 km/h) 0 mm0 mm
00:06 15.9 °C 9 km/h (13 km/h) 0 mm0 mm
00:00 15.9 °C 9 km/h (14 km/h) 0 mm0 mm

Données via Météo-France

Relevés météo à Batz

Cette page rassemble les observations de la station de Batz : température, humidité, vent, précipitations et pression atmosphérique. Les graphiques facilitent le suivi de la journée, tandis que le tableau donne accès aux mesures horaires et infra-horaires disponibles.

Pour replacer ces mesures dans leur contexte, consultez la climatologie de Batz ainsi que ses normales et records. Retrouvez aussi la carte des observations météo en temps réel.